Fascination — C6FM9 — position and weather

sailwx.info

Track history (hours):
 
Tides and Currents Weather Stations Pressure Air Temp Water Temp Dewpoint Dewpoint Depression Visibility Wind Speed Wind Dir Waves Ship Positions

Fascination

Operator: Carnival Cruise Lines

Last reported at 2016-Sep-28 03:31 UTC. Time now 2016-Sep-28 10:21 UTC.
Position N 17°59' W 063°26'.

Type: Ship. MMSI: 309682000.

Date/timePositionNaut miles runAvg speedWind from/ knotsBaromVisibWave heightAir tempDewpointWater temp
2016-Sep-28 03:31N 17°59' W 063°26'9 9.4
2016-Sep-28 02:31N 17°59' W 063°36'7 7.3
2016-Sep-28 01:33N 18°05' W 063°40'14 7.0
2016-Sep-27 23:32N 18°05' W 063°25'22 5.1
2016-Sep-27 19:18N 18°01' W 063°03'0 0.0
2016-Sep-27 10:31N 18°00' W 063°03'177 5.6
2016-Sep-26 02:33N 18°28' W 066°07'1 0.8
2016-Sep-26 01:30N 18°28' W 066°07'0 0.0
2016-Sep-26 00:33N 18°28' W 066°07'0 0.0
2016-Sep-25 16:29N 18°28' W 066°07'0 0.0
2016-Sep-25 15:29N 18°28' W 066°07'0 0.0
2016-Sep-25 14:32N 18°28' W 066°07'0 0.0
2016-Sep-25 12:10N 18°28' W 066°07'0 0.0
2016-Sep-25 11:33N 18°28' W 066°07'0 0.4
2016-Sep-25 10:33N 18°27' W 066°07'7011.7
2016-Sep-25 04:33N 18°10' W 064°55'9515.8
2016-Sep-24 22:33N 18°01' W 063°16'12 1.0
2016-Sep-24 10:26N 18°00' W 063°03'8 8.6
2016-Sep-24 09:33N 18°01' W 063°11'10 1.7
2016-Sep-24 03:31N 17°55' W 063°20'9 9.1
2016-Sep-24 02:32N 17°49' W 063°13'9 8.7
2016-Sep-24 01:31N 17°42' W 063°08'9 9.2
2016-Sep-24 00:31N 17°33' W 063°07'  
2016-Sep-19 23:15N 18°03' W 064°41'85 4.2
2016-Sep-19 03:07N 18°33' W 066°05'611.2
2016-Sep-19 02:33N 18°28' W 066°07'1 0.3
2016-Sep-19 00:19N 18°28' W 066°07'0 0.0
2016-Sep-18 19:29N 18°28' W 066°07'0 0.0
2016-Sep-18 15:27N 18°28' W 066°07'0 0.0
2016-Sep-18 14:30N 18°28' W 066°07'0 0.1
2016-Sep-18 10:33N 18°27' W 066°07'7 6.9
2016-Sep-18 09:31N 18°34' W 066°04'  
Track history (hours):
 
Tides and Currents Weather Stations Pressure Air Temp Water Temp Dewpoint Dewpoint Depression Visibility Wind Speed Wind Dir Waves Ship Positions

Fascination

Operator: Carnival Cruise Lines

Last reported at 2016-Sep-28 03:31 UTC. Time now 2016-Sep-28 10:21 UTC.
Position N 17°59' W 063°26'.

Type: Ship. MMSI: 309682000.

Date/timePositionNaut miles runAvg speedWind from/ knotsBaromVisibWave heightAir tempDewpointWater temp
2016-Sep-28 03:31N 17°59' W 063°26'9 9.4
2016-Sep-28 02:31N 17°59' W 063°36'7 7.3
2016-Sep-28 01:33N 18°05' W 063°40'14 7.0
2016-Sep-27 23:32N 18°05' W 063°25'22 5.1
2016-Sep-27 19:18N 18°01' W 063°03'0 0.0
2016-Sep-27 10:31N 18°00' W 063°03'177 5.6
2016-Sep-26 02:33N 18°28' W 066°07'1 0.8
2016-Sep-26 01:30N 18°28' W 066°07'0 0.0
2016-Sep-26 00:33N 18°28' W 066°07'0 0.0
2016-Sep-25 16:29N 18°28' W 066°07'0 0.0
2016-Sep-25 15:29N 18°28' W 066°07'0 0.0
2016-Sep-25 14:32N 18°28' W 066°07'0 0.0
2016-Sep-25 12:10N 18°28' W 066°07'0 0.0
2016-Sep-25 11:33N 18°28' W 066°07'0 0.4
2016-Sep-25 10:33N 18°27' W 066°07'7011.7
2016-Sep-25 04:33N 18°10' W 064°55'9515.8
2016-Sep-24 22:33N 18°01' W 063°16'12 1.0
2016-Sep-24 10:26N 18°00' W 063°03'8 8.6
2016-Sep-24 09:33N 18°01' W 063°11'10 1.7
2016-Sep-24 03:31N 17°55' W 063°20'9 9.1
2016-Sep-24 02:32N 17°49' W 063°13'9 8.7
2016-Sep-24 01:31N 17°42' W 063°08'9 9.2
2016-Sep-24 00:31N 17°33' W 063°07'  
2016-Sep-19 23:15N 18°03' W 064°41'85 4.2
2016-Sep-19 03:07N 18°33' W 066°05'611.2
2016-Sep-19 02:33N 18°28' W 066°07'1 0.3
2016-Sep-19 00:19N 18°28' W 066°07'0 0.0
2016-Sep-18 19:29N 18°28' W 066°07'0 0.0
2016-Sep-18 15:27N 18°28' W 066°07'0 0.0
2016-Sep-18 14:30N 18°28' W 066°07'0 0.1
2016-Sep-18 10:33N 18°27' W 066°07'7 6.9
2016-Sep-18 09:31N 18°34' W 066°04'  

Dump ship's entire track history